Latest Weather Observations for Falls Creek

IDV60801

Issued at 1:05 pm EDT Thursday 23 October 2014 (issued every 30 minutes, with the page automatically refreshed every 10 minutes)

About weather observations | Map of weather stations | Latest weather observations for VIC | Other Formats
Station Details ID: 083084 Name: FALLS CREEK Lat: -36.87 Lon: 147.28 Height: 1765.0 m
Data from the previous 72 hours. | See also: Recent months at Falls Creek
Date/Time
EDT
Temp
°C
App
Temp
°C
Dew
Point
Rel
Hum
%
Delta-T
°C
Wind Press
QNH
hPa
Press
MSL
hPa
Rain
since 9 am
mm
Dir
 
Spd
km/h
Gust
km/h
Spd
kts
Gust
kts
23/01:00pm 18.6 - 7.1 47 6.3 - - - - - 1024.3 1022.5 0.0
23/12:30pm 18.3 - 6.5 46 6.4 - - - - - 1024.5 1022.7 0.0
23/12:00pm 18.0 - 5.9 45 6.5 - - - - - 1024.6 1022.9 0.0
23/11:30am 17.9 - 5.5 44 6.6 - - - - - 1024.9 1023.1 0.0
23/11:00am 17.5 - 6.4 48 6.0 - - - - - 1025.0 1023.2 0.0
23/10:30am 17.2 - 5.2 45 6.3 - - - - - 1025.0 1023.2 0.0
23/10:00am 16.3 - 6.7 53 5.2 - - - - - 1024.9 1023.1 0.0
23/09:30am 16.0 - 6.7 54 5.0 - - - - - 1025.0 1023.2 0.0
23/09:00am 15.4 - 5.9 53 5.0 - - - - - 1024.7 1023.0 0.0
23/08:30am 14.5 - 5.8 56 4.6 - - - - - 1024.7 1023.0 0.0
23/08:00am 13.9 - 5.8 58 4.2 - - - - - 1024.5 1022.7 0.0
23/07:30am 12.9 - 5.6 61 3.8 - - - - - 1024.4 1022.6 0.0
23/07:00am 12.5 - 5.2 61 3.7 - - - - - 1024.3 1022.5 0.0
23/06:30am 11.9 - 4.4 60 3.8 - - - - - 1024.2 1022.4 0.0
23/06:00am 11.8 - 4.3 60 3.7 - - - - - 1024.0 1022.2 0.0
23/05:30am 11.2 - 4.9 65 3.2 - - - - - 1024.0 1022.2 0.0
23/05:00am 12.0 - 4.0 58 4.0 - - - - - 1024.0 1022.2 0.0
23/04:30am 12.1 - 4.3 59 3.9 - - - - - 1023.9 1022.1 0.0
23/04:00am 12.4 - 3.6 55 4.3 - - - - - 1023.8 1022.0 0.0
23/03:30am 12.4 - 3.9 56 4.2 - - - - - 1023.9 1022.1 0.0
23/03:00am 12.3 - 4.3 58 4.0 - - - - - 1024.3 1022.5 0.0
23/02:30am 11.4 - 7.5 77 2.1 - - - - - 1024.6 1022.9 0.0
23/02:00am 11.1 - 8.3 83 1.5 - - - - - 1024.6 1022.9 0.0
23/01:30am 11.4 - 8.4 82 1.6 - - - - - 1024.9 1023.1 0.0
23/01:00am 13.6 - 3.7 51 4.9 - - - - - 1024.6 1022.9 0.0
23/12:30am 13.4 - 4.3 54 4.6 - - - - - 1024.7 1023.0 0.0
23/12:00am 13.1 - 4.5 56 4.3 - - - - - 1025.1 1023.4 0.0
 
Date/Time
EDT
Temp
°C
App
Temp
°C
Dew
Point
Rel
Hum
%
Delta-T
°C
Wind Press
QNH
hPa
Press
MSL
hPa
Rain
since 9 am
mm
Dir
 
Spd
km/h
Gust
km/h
Spd
kts
Gust
kts
22/11:30pm 13.8 - 4.7 54 4.7 - - - - - 1025.6 1023.9 0.0
22/11:00pm 13.6 - 5.0 56 4.4 - - - - - 1025.7 1024.0 0.0
22/10:30pm 13.9 - 4.5 53 4.8 - - - - - 1025.8 1024.1 0.0
22/10:00pm 14.0 - 4.0 51 5.0 - - - - - 1025.8 1024.1 0.0
22/09:30pm 13.5 - 4.1 53 4.7 - - - - - 1025.8 1024.1 0.0
22/09:00pm 13.0 - 4.7 57 4.2 - - - - - 1025.8 1024.1 0.0
22/08:30pm 12.7 - 5.8 63 3.6 - - - - - 1025.3 1023.6 0.0
22/08:00pm 12.6 - 7.5 71 2.7 - - - - - 1025.1 1023.4 0.0
22/07:30pm 13.0 - 7.2 68 3.1 - - - - - 1025.1 1023.4 0.0
22/07:00pm 14.3 - 9.5 73 2.7 - - - - - 1025.1 1023.4 0.0
22/06:30pm 14.8 - 9.0 68 3.2 - - - - - 1024.9 1023.1 0.0
22/06:00pm 15.5 - 9.2 66 3.5 - - - - - 1025.0 1023.2 0.0
22/05:30pm 15.5 - 8.7 64 3.8 - - - - - 1025.0 1023.2 0.0
22/05:00pm 15.8 - 8.5 62 4.1 - - - - - 1025.2 1023.5 0.0
22/04:30pm 17.2 - 8.4 56 4.9 - - - - - 1025.3 1023.6 0.0
22/04:00pm 17.3 - 6.2 48 6.0 - - - - - 1025.3 1023.6 0.0
22/03:30pm 17.5 - 4.5 42 6.8 - - - - - 1025.5 1023.7 0.0
22/03:00pm 17.0 - 6.2 49 5.8 - - - - - 1025.7 1024.0 0.0
22/02:30pm 16.9 - 6.4 50 5.7 - - - - - 1025.9 1024.2 0.0
22/02:00pm 16.1 - 8.3 60 4.3 - - - - - 1026.3 1024.6 0.0
22/01:30pm 16.1 - 8.3 60 4.3 - - - - - 1026.5 1024.8 0.0
22/01:00pm 15.0 - 7.8 62 3.9 - - - - - 1026.5 1024.8 0.0
22/12:30pm 14.7 - 8.2 65 3.6 - - - - - 1026.8 1025.1 0.0
22/12:00pm 14.5 - 8.2 66 3.5 - - - - - 1027.1 1025.5 0.0
22/11:30am 13.9 - 8.3 69 3.1 - - - - - 1027.2 1025.6 0.0
22/11:00am 13.1 - 8.2 72 2.7 - - - - - 1027.4 1025.7 0.0
22/10:30am 13.4 - 7.8 69 3.0 - - - - - 1027.6 1026.0 0.0
22/10:00am 12.1 - 7.2 72 2.6 - - - - - 1027.7 1026.1 0.0
22/09:30am 11.2 - 6.9 75 2.3 - - - - - 1027.8 1026.2 0.0
22/09:00am 11.3 - 6.2 71 2.6 - - - - - 1027.7 1026.1 0.0
22/08:30am 10.6 - 5.8 72 2.5 - - - - - 1027.6 1026.0 0.0
22/08:00am 10.1 - 5.1 71 2.5 - - - - - 1027.7 1026.1 0.0
22/07:30am 9.5 - 4.1 69 2.6 - - - - - 1027.5 1025.8 0.0
22/07:00am 9.0 - 3.0 66 2.8 - - - - - 1027.4 1025.7 0.0
22/06:30am 8.6 - 2.6 66 2.8 - - - - - 1027.1 1025.5 0.0
22/06:00am 9.0 - 2.3 63 3.1 - - - - - 1026.9 1025.2 0.0
22/05:30am 9.2 - 3.8 69 2.6 - - - - - 1026.5 1024.8 0.0
22/05:00am 9.1 - 2.2 62 3.2 - - - - - 1026.5 1024.8 0.0
22/04:30am 9.0 - 1.0 57 3.6 - - - - - 1026.7 1025.0 0.0
22/04:00am 8.9 - -0.1 53 4.0 - - - - - 1027.0 1025.3 0.0
22/03:30am 8.8 - -1.0 50 4.3 - - - - - 1027.1 1025.5 0.0
22/03:00am 8.3 - 2.5 67 2.7 - - - - - 1027.6 1026.0 0.0
22/02:30am 8.3 - 5.4 82 1.4 - - - - - 1028.0 1026.3 0.0
22/02:00am 8.0 - 5.1 82 1.4 - - - - - 1028.3 1026.7 0.0
22/01:30am 7.3 - 4.8 84 1.2 - - - - - 1028.7 1027.1 0.0
22/01:00am 8.2 - 4.0 75 2.0 - - - - - 1029.1 1027.6 0.0
22/12:30am 8.4 - 5.0 79 1.7 - - - - - 1029.5 1027.9 0.0
22/12:00am 8.5 - 7.1 91 0.7 - - - - - 1029.7 1028.2 0.0
 
Date/Time
EDT
Temp
°C
App
Temp
°C
Dew
Point
Rel
Hum
%
Delta-T
°C
Wind Press
QNH
hPa
Press
MSL
hPa
Rain
since 9 am
mm
Dir
 
Spd
km/h
Gust
km/h
Spd
kts
Gust
kts
21/11:30pm 8.8 - 7.9 94 0.5 - - - - - 1029.9 1028.3 0.0
21/11:00pm 8.6 - 7.8 95 0.4 - - - - - 1029.9 1028.3 0.0
21/10:30pm 8.9 - 7.8 93 0.6 - - - - - 1030.1 1028.5 0.0
21/10:00pm 9.0 - 7.9 93 0.6 - - - - - 1030.2 1028.7 0.0
21/09:30pm 8.9 - 7.7 92 0.6 - - - - - 1030.2 1028.7 0.0
21/09:00pm 8.8 - 7.6 92 0.6 - - - - - 1030.2 1028.7 0.0
21/08:30pm 8.9 - 7.5 91 0.7 - - - - - 1030.1 1028.5 0.0
21/08:00pm 9.0 - 7.6 91 0.7 - - - - - 1030.0 1028.4 0.0
21/07:30pm 9.7 - 7.8 88 1.0 - - - - - 1029.7 1028.2 0.0
21/07:00pm 10.3 - 8.1 86 1.2 - - - - - 1029.6 1028.1 0.0
21/06:30pm 11.6 - 8.5 81 1.7 - - - - - 1029.6 1028.1 0.0
21/06:00pm 12.2 - 8.7 79 1.9 - - - - - 1029.5 1027.9 0.0
21/05:30pm 13.3 - 8.8 74 2.5 - - - - - 1029.4 1027.8 0.0
21/05:00pm 13.8 - 8.8 72 2.8 - - - - - 1029.4 1027.8 0.0
21/04:30pm 13.6 - 8.9 73 2.6 - - - - - 1029.5 1027.9 0.0
21/04:00pm 13.9 - 8.7 71 2.9 - - - - - 1029.6 1028.1 0.0
21/03:30pm 16.0 - 9.4 65 3.7 - - - - - 1029.7 1028.2 0.0
21/03:00pm 15.0 - 8.7 66 3.5 - - - - - 1030.0 1028.4 0.0
21/02:30pm 15.8 - 9.2 65 3.7 - - - - - 1030.2 1028.7 0.0
21/02:00pm 15.5 - 8.5 63 3.9 - - - - - 1030.6 1029.0 0.0
21/01:30pm 15.9 - 8.9 63 3.9 - - - - - 1030.7 1029.2 0.0
21/01:00pm 14.7 - 8.2 65 3.6 - - - - - 1030.9 1029.4 0.0
21/12:30pm 14.5 - 8.9 69 3.1 - - - - - 1031.0 1029.5 0.0
21/12:00pm 13.6 - 7.6 67 3.2 - - - - - 1031.2 1029.7 0.0
21/11:30am 13.3 - 7.7 69 3.0 - - - - - 1031.3 1029.8 0.0
21/11:00am 12.5 - 7.2 70 2.8 - - - - - 1031.3 1029.8 0.0
21/10:30am 12.4 - 7.3 71 2.7 - - - - - 1031.2 1029.7 0.0
21/10:00am 11.5 - 6.6 72 2.5 - - - - - 1031.2 1029.7 0.0
21/09:30am 10.6 - 6.6 76 2.1 - - - - - 1030.9 1029.4 0.0
21/09:00am 10.7 - 5.3 69 2.7 - - - - - 1030.8 1029.3 0.0
21/08:30am 9.5 - 4.3 70 2.6 - - - - - 1030.7 1029.2 0.0
21/08:00am 8.6 - 4.8 77 1.9 - - - - - 1030.3 1028.8 0.0
21/07:30am 7.6 - 4.0 78 1.7 - - - - - 1030.0 1028.4 0.0
21/07:00am 7.3 - 3.2 75 1.9 - - - - - 1029.7 1028.2 0.0
21/06:30am 6.6 - 4.4 86 1.1 - - - - - 1029.4 1027.8 0.0
21/06:00am 6.6 - 4.6 87 1.0 - - - - - 1029.1 1027.6 0.0
21/05:30am 6.6 - 4.8 88 0.9 - - - - - 1028.9 1027.3 0.0
21/05:00am 6.4 - 5.5 94 0.4 - - - - - 1029.0 1027.4 0.0
21/04:30am 7.2 - 5.2 87 1.0 - - - - - 1028.9 1027.3 0.0
21/04:00am 6.7 - 5.5 92 0.6 - - - - - 1028.9 1027.3 0.0
21/03:30am 6.8 - 5.7 93 0.5 - - - - - 1029.3 1027.7 0.0
21/03:00am 6.8 - 5.4 91 0.7 - - - - - 1029.4 1027.8 0.0
21/02:30am 7.0 - 5.5 90 0.7 - - - - - 1029.4 1027.8 0.0
21/02:00am 7.1 - 5.3 88 0.9 - - - - - 1029.6 1028.1 0.0
21/01:30am 7.1 - 4.4 83 1.3 - - - - - 1029.7 1028.2 0.0
21/01:00am 7.9 - 5.2 83 1.3 - - - - - 1030.0 1028.4 0.0
21/12:30am 8.1 - 5.0 81 1.5 - - - - - 1030.0 1028.4 0.0
21/12:00am 8.3 - 3.8 73 2.2 - - - - - 1030.2 1028.7 0.0
 
Date/Time
EDT
Temp
°C
App
Temp
°C
Dew
Point
Rel
Hum
%
Delta-T
°C
Wind Press
QNH
hPa
Press
MSL
hPa
Rain
since 9 am
mm
Dir
 
Spd
km/h
Gust
km/h
Spd
kts
Gust
kts
20/11:30pm 8.4 - 5.7 83 1.4 - - - - - 1030.2 1028.7 0.0
20/11:00pm 8.3 - 6.1 86 1.1 - - - - - 1030.2 1028.7 0.0
20/10:30pm 5.8 - 5.8 100 0.0 - - - - - 1030.3 1028.8 0.0
20/10:00pm 3.8 - 3.2 96 0.3 - - - - - 1030.3 1028.8 0.0
20/09:30pm 3.3 - 2.9 97 0.2 - - - - - 1030.2 1028.7 0.0
20/09:00pm 3.2 - 3.1 99 0.0 - - - - - 1030.1 1028.5 0.0
20/08:30pm 3.5 - 3.1 97 0.2 - - - - - 1029.7 1028.2 0.0
20/08:00pm 4.1 - 3.2 94 0.4 - - - - - 1029.5 1027.9 0.0
20/07:30pm 5.0 - 3.7 91 0.6 - - - - - 1029.5 1027.9 0.0
20/07:00pm 6.5 - 4.0 84 1.2 - - - - - 1029.4 1027.8 0.0
20/06:30pm 7.8 - 4.7 81 1.5 - - - - - 1029.3 1027.7 0.0
20/06:00pm 8.8 - 5.2 78 1.8 - - - - - 1029.3 1027.7 0.0
20/05:30pm 9.9 - 5.5 74 2.2 - - - - - 1029.1 1027.6 0.0
20/05:00pm 10.4 - 5.8 73 2.3 - - - - - 1029.1 1027.6 0.0
20/04:30pm 10.8 - 6.0 72 2.5 - - - - - 1029.1 1027.6 0.0
20/04:00pm 10.8 - 5.6 70 2.6 - - - - - 1029.0 1027.4 0.0
20/03:30pm 10.8 - 5.6 70 2.7 - - - - - 1029.0 1027.4 0.0
20/03:00pm 13.3 - 6.6 64 3.5 - - - - - 1029.0 1027.4 0.0
20/02:30pm 13.7 - 6.6 62 3.8 - - - - - 1029.1 1027.6 0.0
20/02:00pm 14.6 - 7.4 62 3.9 - - - - - 1029.4 1027.8 0.0
20/01:30pm 14.9 - 6.5 57 4.5 - - - - - 1029.6 1028.1 0.0

Other Formats:

Comma delimited format used in spreadsheet applications
http://www.bom.gov.au/fwo/IDV60801/IDV60801.94903.axf

JavaScript Object Notation format (JSON) in row-major order
http://www.bom.gov.au/fwo/IDV60801/IDV60801.94903.json